sensor_id;sensor_type;location;lat;lon;timestamp;P1;durP1;ratioP1;P2;durP2;ratioP2
12124;SDS011;6126;57.908;16.490;2023-07-13T00:02:15;1.95;;;1.30;;
12124;SDS011;6126;57.908;16.490;2023-07-13T00:04:41;1.40;;;1.30;;
12124;SDS011;6126;57.908;16.490;2023-07-13T00:07:07;1.65;;;1.20;;
12124;SDS011;6126;57.908;16.490;2023-07-13T00:09:34;1.25;;;1.15;;
12124;SDS011;6126;57.908;16.490;2023-07-13T00:12:00;1.27;;;1.17;;
12124;SDS011;6126;57.908;16.490;2023-07-13T00:14:28;2.30;;;1.27;;
12124;SDS011;6126;57.908;16.490;2023-07-13T00:16:54;1.40;;;1.30;;
12124;SDS011;6126;57.908;16.490;2023-07-13T00:19:21;3.42;;;1.50;;
12124;SDS011;6126;57.908;16.490;2023-07-13T00:21:47;1.58;;;1.48;;
12124;SDS011;6126;57.908;16.490;2023-07-13T00:24:14;2.60;;;1.40;;
12124;SDS011;6126;57.908;16.490;2023-07-13T00:26:48;1.50;;;1.40;;
12124;SDS011;6126;57.908;16.490;2023-07-13T00:29:14;1.35;;;1.20;;
12124;SDS011;6126;57.908;16.490;2023-07-13T00:31:41;1.23;;;1.08;;
12124;SDS011;6126;57.908;16.490;2023-07-13T00:34:08;1.60;;;1.50;;
12124;SDS011;6126;57.908;16.490;2023-07-13T00:36:34;1.35;;;1.25;;
12124;SDS011;6126;57.908;16.490;2023-07-13T00:39:00;1.75;;;1.45;;
12124;SDS011;6126;57.908;16.490;2023-07-13T00:41:28;2.83;;;1.60;;
12124;SDS011;6126;57.908;16.490;2023-07-13T00:43:55;3.97;;;1.30;;
12124;SDS011;6126;57.908;16.490;2023-07-13T00:48:54;2.60;;;1.77;;
12124;SDS011;6126;57.908;16.490;2023-07-13T00:51:32;1.60;;;1.50;;
12124;SDS011;6126;57.908;16.490;2023-07-13T00:54:10;3.22;;;1.85;;
12124;SDS011;6126;57.908;16.490;2023-07-13T00:56:43;2.17;;;1.70;;
12124;SDS011;6126;57.908;16.490;2023-07-13T00:59:15;3.13;;;1.67;;
12124;SDS011;6126;57.908;16.490;2023-07-13T01:01:44;1.58;;;1.48;;
12124;SDS011;6126;57.908;16.490;2023-07-13T01:04:10;1.60;;;1.50;;
12124;SDS011;6126;57.908;16.490;2023-07-13T01:06:38;2.55;;;1.90;;
12124;SDS011;6126;57.908;16.490;2023-07-13T01:09:06;1.52;;;1.42;;
12124;SDS011;6126;57.908;16.490;2023-07-13T01:11:35;2.92;;;1.80;;
12124;SDS011;6126;57.908;16.490;2023-07-13T01:14:01;1.45;;;1.35;;
12124;SDS011;6126;57.908;16.490;2023-07-13T01:16:29;1.60;;;1.50;;
12124;SDS011;6126;57.908;16.490;2023-07-13T01:18:58;1.77;;;1.67;;
12124;SDS011;6126;57.908;16.490;2023-07-13T01:21:26;1.80;;;1.70;;
12124;SDS011;6126;57.908;16.490;2023-07-13T01:23:55;3.25;;;1.98;;
12124;SDS011;6126;57.908;16.490;2023-07-13T01:26:21;2.63;;;1.88;;
12124;SDS011;6126;57.908;16.490;2023-07-13T01:28:47;1.60;;;1.48;;
12124;SDS011;6126;57.908;16.490;2023-07-13T01:31:13;2.03;;;1.60;;
12124;SDS011;6126;57.908;16.490;2023-07-13T01:33:39;2.03;;;1.83;;
12124;SDS011;6126;57.908;16.490;2023-07-13T01:36:07;3.53;;;1.60;;
12124;SDS011;6126;57.908;16.490;2023-07-13T01:38:34;4.50;;;2.15;;
12124;SDS011;6126;57.908;16.490;2023-07-13T01:41:01;2.95;;;1.75;;
12124;SDS011;6126;57.908;16.490;2023-07-13T01:43:28;1.55;;;1.45;;
12124;SDS011;6126;57.908;16.490;2023-07-13T01:45:55;4.00;;;1.95;;
12124;SDS011;6126;57.908;16.490;2023-07-13T01:48:21;1.83;;;1.55;;
12124;SDS011;6126;57.908;16.490;2023-07-13T01:50:47;2.90;;;2.03;;
12124;SDS011;6126;57.908;16.490;2023-07-13T01:53:13;1.80;;;1.67;;
12124;SDS011;6126;57.908;16.490;2023-07-13T01:55:39;3.95;;;1.70;;
12124;SDS011;6126;57.908;16.490;2023-07-13T01:58:05;1.90;;;1.80;;
12124;SDS011;6126;57.908;16.490;2023-07-13T02:00:31;1.60;;;1.50;;
12124;SDS011;6126;57.908;16.490;2023-07-13T02:02:58;2.28;;;1.83;;
12124;SDS011;6126;57.908;16.490;2023-07-13T02:05:24;2.10;;;2.00;;
12124;SDS011;6126;57.908;16.490;2023-07-13T02:07:50;1.42;;;1.33;;
12124;SDS011;6126;57.908;16.490;2023-07-13T02:10:16;2.03;;;1.83;;
12124;SDS011;6126;57.908;16.490;2023-07-13T02:12:42;1.80;;;1.70;;
12124;SDS011;6126;57.908;16.490;2023-07-13T02:15:09;2.03;;;1.60;;
12124;SDS011;6126;57.908;16.490;2023-07-13T02:17:35;2.28;;;1.77;;
12124;SDS011;6126;57.908;16.490;2023-07-13T02:20:02;2.70;;;1.80;;
12124;SDS011;6126;57.908;16.490;2023-07-13T02:22:29;2.25;;;2.05;;
12124;SDS011;6126;57.908;16.490;2023-07-13T02:24:55;1.83;;;1.70;;
12124;SDS011;6126;57.908;16.490;2023-07-13T02:27:21;1.80;;;1.70;;
12124;SDS011;6126;57.908;16.490;2023-07-13T02:29:47;1.52;;;1.42;;
12124;SDS011;6126;57.908;16.490;2023-07-13T02:32:16;2.22;;;1.73;;
12124;SDS011;6126;57.908;16.490;2023-07-13T02:34:43;1.60;;;1.50;;
12124;SDS011;6126;57.908;16.490;2023-07-13T02:37:09;1.63;;;1.52;;
12124;SDS011;6126;57.908;16.490;2023-07-13T02:39:35;2.13;;;1.63;;
12124;SDS011;6126;57.908;16.490;2023-07-13T02:42:01;1.77;;;1.67;;
12124;SDS011;6126;57.908;16.490;2023-07-13T02:44:26;3.50;;;1.90;;
12124;SDS011;6126;57.908;16.490;2023-07-13T02:46:52;2.08;;;1.60;;
12124;SDS011;6126;57.908;16.490;2023-07-13T02:49:19;2.00;;;1.65;;
12124;SDS011;6126;57.908;16.490;2023-07-13T02:51:44;3.90;;;2.38;;
12124;SDS011;6126;57.908;16.490;2023-07-13T02:54:10;2.10;;;2.00;;
12124;SDS011;6126;57.908;16.490;2023-07-13T02:56:38;1.83;;;1.73;;
12124;SDS011;6126;57.908;16.490;2023-07-13T02:59:05;2.33;;;2.13;;
12124;SDS011;6126;57.908;16.490;2023-07-13T03:01:31;2.72;;;2.03;;
12124;SDS011;6126;57.908;16.490;2023-07-13T03:03:57;2.05;;;1.80;;
12124;SDS011;6126;57.908;16.490;2023-07-13T03:06:23;1.98;;;1.65;;
12124;SDS011;6126;57.908;16.490;2023-07-13T03:08:49;2.65;;;1.98;;
12124;SDS011;6126;57.908;16.490;2023-07-13T03:11:17;2.05;;;1.85;;
12124;SDS011;6126;57.908;16.490;2023-07-13T03:13:45;2.20;;;2.00;;
12124;SDS011;6126;57.908;16.490;2023-07-13T03:16:12;1.52;;;1.42;;
12124;SDS011;6126;57.908;16.490;2023-07-13T03:18:40;2.45;;;1.75;;
12124;SDS011;6126;57.908;16.490;2023-07-13T03:21:08;2.33;;;2.00;;
12124;SDS011;6126;57.908;16.490;2023-07-13T03:23:34;2.75;;;2.08;;
12124;SDS011;6126;57.908;16.490;2023-07-13T03:26:04;2.33;;;2.13;;
12124;SDS011;6126;57.908;16.490;2023-07-13T03:28:43;4.40;;;2.10;;
12124;SDS011;6126;57.908;16.490;2023-07-13T03:31:14;5.35;;;1.92;;
12124;SDS011;6126;57.908;16.490;2023-07-13T03:33:48;2.15;;;1.98;;
12124;SDS011;6126;57.908;16.490;2023-07-13T03:36:15;4.43;;;2.10;;
12124;SDS011;6126;57.908;16.490;2023-07-13T03:38:46;2.85;;;2.38;;
12124;SDS011;6126;57.908;16.490;2023-07-13T03:41:22;3.33;;;2.15;;
12124;SDS011;6126;57.908;16.490;2023-07-13T03:43:49;3.15;;;2.03;;
12124;SDS011;6126;57.908;16.490;2023-07-13T03:46:16;4.38;;;1.75;;
12124;SDS011;6126;57.908;16.490;2023-07-13T03:48:44;4.18;;;2.03;;
12124;SDS011;6126;57.908;16.490;2023-07-13T03:51:12;2.63;;;2.42;;
12124;SDS011;6126;57.908;16.490;2023-07-13T03:53:41;3.13;;;2.00;;
12124;SDS011;6126;57.908;16.490;2023-07-13T03:56:08;2.63;;;2.42;;
12124;SDS011;6126;57.908;16.490;2023-07-13T03:58:37;3.83;;;2.17;;
12124;SDS011;6126;57.908;16.490;2023-07-13T04:01:06;3.47;;;2.33;;
12124;SDS011;6126;57.908;16.490;2023-07-13T04:03:35;2.70;;;2.17;;
12124;SDS011;6126;57.908;16.490;2023-07-13T04:06:02;4.80;;;2.35;;
12124;SDS011;6126;57.908;16.490;2023-07-13T04:08:32;4.43;;;1.77;;
12124;SDS011;6126;57.908;16.490;2023-07-13T04:11:01;2.20;;;2.00;;
12124;SDS011;6126;57.908;16.490;2023-07-13T04:13:29;2.38;;;2.17;;
12124;SDS011;6126;57.908;16.490;2023-07-13T04:15:55;2.22;;;1.83;;
12124;SDS011;6126;57.908;16.490;2023-07-13T04:18:21;2.08;;;1.88;;
12124;SDS011;6126;57.908;16.490;2023-07-13T04:20:48;4.25;;;2.20;;
12124;SDS011;6126;57.908;16.490;2023-07-13T04:23:15;3.88;;;2.17;;
12124;SDS011;6126;57.908;16.490;2023-07-13T04:25:46;3.85;;;2.30;;
12124;SDS011;6126;57.908;16.490;2023-07-13T04:28:17;2.05;;;1.95;;
12124;SDS011;6126;57.908;16.490;2023-07-13T04:30:46;2.38;;;2.10;;
12124;SDS011;6126;57.908;16.490;2023-07-13T04:33:12;4.18;;;1.92;;
12124;SDS011;6126;57.908;16.490;2023-07-13T04:35:38;2.13;;;1.92;;
12124;SDS011;6126;57.908;16.490;2023-07-13T04:38:04;3.60;;;2.22;;
12124;SDS011;6126;57.908;16.490;2023-07-13T04:40:30;6.88;;;2.20;;
12124;SDS011;6126;57.908;16.490;2023-07-13T04:42:56;4.30;;;1.90;;
12124;SDS011;6126;57.908;16.490;2023-07-13T04:45:22;2.72;;;1.90;;
12124;SDS011;6126;57.908;16.490;2023-07-13T04:47:49;2.42;;;1.95;;
12124;SDS011;6126;57.908;16.490;2023-07-13T04:50:15;2.25;;;1.95;;
12124;SDS011;6126;57.908;16.490;2023-07-13T04:52:45;2.47;;;1.95;;
12124;SDS011;6126;57.908;16.490;2023-07-13T04:55:12;2.38;;;2.08;;
12124;SDS011;6126;57.908;16.490;2023-07-13T04:57:38;3.42;;;1.88;;
12124;SDS011;6126;57.908;16.490;2023-07-13T05:00:04;4.70;;;1.80;;
12124;SDS011;6126;57.908;16.490;2023-07-13T05:02:32;4.80;;;1.70;;
12124;SDS011;6126;57.908;16.490;2023-07-13T05:04:59;2.72;;;2.08;;
12124;SDS011;6126;57.908;16.490;2023-07-13T05:07:25;2.28;;;1.77;;
12124;SDS011;6126;57.908;16.490;2023-07-13T05:09:51;2.53;;;2.20;;
12124;SDS011;6126;57.908;16.490;2023-07-13T05:12:17;2.35;;;2.10;;
12124;SDS011;6126;57.908;16.490;2023-07-13T05:14:44;3.15;;;1.85;;
12124;SDS011;6126;57.908;16.490;2023-07-13T05:17:10;5.90;;;1.98;;
12124;SDS011;6126;57.908;16.490;2023-07-13T05:19:36;1.90;;;1.77;;
12124;SDS011;6126;57.908;16.490;2023-07-13T05:22:02;4.20;;;2.05;;
12124;SDS011;6126;57.908;16.490;2023-07-13T05:24:29;1.90;;;1.80;;
12124;SDS011;6126;57.908;16.490;2023-07-13T05:26:55;2.03;;;1.83;;
12124;SDS011;6126;57.908;16.490;2023-07-13T05:29:21;2.53;;;2.15;;
12124;SDS011;6126;57.908;16.490;2023-07-13T05:31:48;2.60;;;2.08;;
12124;SDS011;6126;57.908;16.490;2023-07-13T05:34:14;2.13;;;1.90;;
12124;SDS011;6126;57.908;16.490;2023-07-13T05:36:40;2.42;;;2.22;;
12124;SDS011;6126;57.908;16.490;2023-07-13T05:39:06;2.63;;;1.80;;
12124;SDS011;6126;57.908;16.490;2023-07-13T05:41:33;1.90;;;1.40;;
12124;SDS011;6126;57.908;16.490;2023-07-13T05:43:59;2.78;;;1.48;;
12124;SDS011;6126;57.908;16.490;2023-07-13T05:46:25;2.78;;;1.60;;
12124;SDS011;6126;57.908;16.490;2023-07-13T05:48:51;6.13;;;1.60;;
12124;SDS011;6126;57.908;16.490;2023-07-13T05:51:17;2.85;;;1.70;;
12124;SDS011;6126;57.908;16.490;2023-07-13T05:53:42;3.78;;;1.83;;
12124;SDS011;6126;57.908;16.490;2023-07-13T05:56:08;3.15;;;1.95;;
12124;SDS011;6126;57.908;16.490;2023-07-13T05:58:34;3.22;;;2.00;;
12124;SDS011;6126;57.908;16.490;2023-07-13T06:01:06;2.53;;;1.70;;
12124;SDS011;6126;57.908;16.490;2023-07-13T06:03:36;1.70;;;1.60;;
12124;SDS011;6126;57.908;16.490;2023-07-13T06:06:06;5.25;;;1.63;;
12124;SDS011;6126;57.908;16.490;2023-07-13T06:08:34;4.35;;;1.52;;
12124;SDS011;6126;57.908;16.490;2023-07-13T06:11:04;1.85;;;1.58;;
12124;SDS011;6126;57.908;16.490;2023-07-13T06:13:34;3.35;;;1.50;;
12124;SDS011;6126;57.908;16.490;2023-07-13T06:16:01;3.10;;;1.77;;
12124;SDS011;6126;57.908;16.490;2023-07-13T06:18:32;5.40;;;2.13;;
12124;SDS011;6126;57.908;16.490;2023-07-13T06:20:59;3.35;;;1.75;;
12124;SDS011;6126;57.908;16.490;2023-07-13T06:23:25;1.50;;;1.40;;
12124;SDS011;6126;57.908;16.490;2023-07-13T06:25:51;1.58;;;1.40;;
12124;SDS011;6126;57.908;16.490;2023-07-13T06:28:17;2.72;;;1.80;;
12124;SDS011;6126;57.908;16.490;2023-07-13T06:30:43;1.50;;;1.40;;
12124;SDS011;6126;57.908;16.490;2023-07-13T06:33:09;3.03;;;1.50;;
12124;SDS011;6126;57.908;16.490;2023-07-13T06:35:35;3.63;;;1.67;;
12124;SDS011;6126;57.908;16.490;2023-07-13T06:38:01;2.45;;;1.58;;
12124;SDS011;6126;57.908;16.490;2023-07-13T06:40:27;2.08;;;1.70;;
12124;SDS011;6126;57.908;16.490;2023-07-13T06:42:55;4.85;;;1.50;;
12124;SDS011;6126;57.908;16.490;2023-07-13T06:45:21;1.20;;;1.10;;
12124;SDS011;6126;57.908;16.490;2023-07-13T06:47:47;4.63;;;1.55;;
12124;SDS011;6126;57.908;16.490;2023-07-13T06:50:13;5.78;;;1.70;;
12124;SDS011;6126;57.908;16.490;2023-07-13T06:52:39;5.07;;;1.55;;
12124;SDS011;6126;57.908;16.490;2023-07-13T06:55:05;4.13;;;1.30;;
12124;SDS011;6126;57.908;16.490;2023-07-13T06:57:31;1.50;;;1.13;;
12124;SDS011;6126;57.908;16.490;2023-07-13T06:59:57;2.80;;;1.40;;
12124;SDS011;6126;57.908;16.490;2023-07-13T07:02:23;2.67;;;1.27;;
12124;SDS011;6126;57.908;16.490;2023-07-13T07:04:49;3.00;;;1.30;;
12124;SDS011;6126;57.908;16.490;2023-07-13T07:07:15;3.42;;;1.38;;
12124;SDS011;6126;57.908;16.490;2023-07-13T07:09:41;1.52;;;1.30;;
12124;SDS011;6126;57.908;16.490;2023-07-13T07:12:07;6.43;;;1.50;;
12124;SDS011;6126;57.908;16.490;2023-07-13T07:14:33;3.03;;;1.23;;
12124;SDS011;6126;57.908;16.490;2023-07-13T07:16:59;2.20;;;1.35;;
12124;SDS011;6126;57.908;16.490;2023-07-13T07:19:27;5.00;;;1.50;;
12124;SDS011;6126;57.908;16.490;2023-07-13T07:21:55;2.72;;;1.65;;
12124;SDS011;6126;57.908;16.490;2023-07-13T07:24:21;4.35;;;1.80;;
12124;SDS011;6126;57.908;16.490;2023-07-13T07:26:47;5.00;;;1.38;;
12124;SDS011;6126;57.908;16.490;2023-07-13T07:29:12;1.77;;;1.50;;
12124;SDS011;6126;57.908;16.490;2023-07-13T07:31:38;3.53;;;1.48;;
12124;SDS011;6126;57.908;16.490;2023-07-13T07:34:04;2.22;;;1.45;;
12124;SDS011;6126;57.908;16.490;2023-07-13T07:36:32;3.13;;;1.40;;
12124;SDS011;6126;57.908;16.490;2023-07-13T07:38:57;2.05;;;1.30;;
12124;SDS011;6126;57.908;16.490;2023-07-13T07:41:23;2.53;;;1.33;;
12124;SDS011;6126;57.908;16.490;2023-07-13T07:43:49;3.95;;;1.58;;
12124;SDS011;6126;57.908;16.490;2023-07-13T07:46:15;2.67;;;1.38;;
12124;SDS011;6126;57.908;16.490;2023-07-13T07:48:41;2.38;;;1.40;;
12124;SDS011;6126;57.908;16.490;2023-07-13T07:51:07;1.55;;;1.45;;
12124;SDS011;6126;57.908;16.490;2023-07-13T07:53:33;2.17;;;1.15;;
12124;SDS011;6126;57.908;16.490;2023-07-13T07:55:58;5.07;;;1.58;;
12124;SDS011;6126;57.908;16.490;2023-07-13T07:58:24;2.45;;;1.20;;
12124;SDS011;6126;57.908;16.490;2023-07-13T08:00:50;2.40;;;1.20;;
12124;SDS011;6126;57.908;16.490;2023-07-13T08:03:16;2.45;;;1.30;;
12124;SDS011;6126;57.908;16.490;2023-07-13T08:05:42;3.22;;;1.20;;
12124;SDS011;6126;57.908;16.490;2023-07-13T08:08:08;3.72;;;1.30;;
12124;SDS011;6126;57.908;16.490;2023-07-13T08:10:34;2.33;;;1.10;;
12124;SDS011;6126;57.908;16.490;2023-07-13T08:13:02;1.45;;;1.23;;
12124;SDS011;6126;57.908;16.490;2023-07-13T08:15:28;3.17;;;1.42;;
12124;SDS011;6126;57.908;16.490;2023-07-13T08:17:54;2.28;;;1.48;;
12124;SDS011;6126;57.908;16.490;2023-07-13T08:20:20;1.85;;;1.10;;
12124;SDS011;6126;57.908;16.490;2023-07-13T08:22:46;1.08;;;0.98;;
12124;SDS011;6126;57.908;16.490;2023-07-13T08:25:12;2.28;;;1.48;;
12124;SDS011;6126;57.908;16.490;2023-07-13T08:27:37;1.83;;;1.10;;
12124;SDS011;6126;57.908;16.490;2023-07-13T08:30:03;1.75;;;1.20;;
12124;SDS011;6126;57.908;16.490;2023-07-13T08:32:30;1.65;;;1.20;;
12124;SDS011;6126;57.908;16.490;2023-07-13T08:34:56;5.85;;;1.50;;
12124;SDS011;6126;57.908;16.490;2023-07-13T08:37:22;2.40;;;1.30;;
12124;SDS011;6126;57.908;16.490;2023-07-13T08:39:48;1.70;;;1.02;;
12124;SDS011;6126;57.908;16.490;2023-07-13T08:45:04;1.85;;;1.23;;
12124;SDS011;6126;57.908;16.490;2023-07-13T08:48:08;1.67;;;1.10;;
12124;SDS011;6126;57.908;16.490;2023-07-13T08:50:43;1.35;;;1.00;;
12124;SDS011;6126;57.908;16.490;2023-07-13T08:53:48;1.95;;;1.08;;
12124;SDS011;6126;57.908;16.490;2023-07-13T08:56:23;1.98;;;1.15;;
12124;SDS011;6126;57.908;16.490;2023-07-13T08:58:54;3.17;;;1.00;;
12124;SDS011;6126;57.908;16.490;2023-07-13T09:01:36;1.30;;;1.20;;
12124;SDS011;6126;57.908;16.490;2023-07-13T09:04:19;1.73;;;1.10;;
12124;SDS011;6126;57.908;16.490;2023-07-13T09:09:23;3.45;;;0.90;;
12124;SDS011;6126;57.908;16.490;2023-07-13T09:12:16;1.50;;;1.08;;
12124;SDS011;6126;57.908;16.490;2023-07-13T09:17:51;1.20;;;0.90;;
12124;SDS011;6126;57.908;16.490;2023-07-13T09:20:25;2.15;;;0.80;;
12124;SDS011;6126;57.908;16.490;2023-07-13T09:23:22;4.25;;;1.35;;
12124;SDS011;6126;57.908;16.490;2023-07-13T09:25:55;1.30;;;1.20;;
12124;SDS011;6126;57.908;16.490;2023-07-13T09:29:32;3.58;;;0.90;;
12124;SDS011;6126;57.908;16.490;2023-07-13T09:31:49;1.65;;;1.00;;
12124;SDS011;6126;57.908;16.490;2023-07-13T09:34:20;1.50;;;1.08;;
12124;SDS011;6126;57.908;16.490;2023-07-13T09:36:46;2.30;;;0.88;;
12124;SDS011;6126;57.908;16.490;2023-07-13T09:42:17;1.13;;;0.80;;
12124;SDS011;6126;57.908;16.490;2023-07-13T09:47:38;1.98;;;0.90;;
12124;SDS011;6126;57.908;16.490;2023-07-13T09:50:10;1.77;;;0.90;;
12124;SDS011;6126;57.908;16.490;2023-07-13T09:52:45;1.02;;;0.65;;
12124;SDS011;6126;57.908;16.490;2023-07-13T10:00:55;1.02;;;0.93;;
12124;SDS011;6126;57.908;16.490;2023-07-13T10:03:26;4.22;;;0.90;;
12124;SDS011;6126;57.908;16.490;2023-07-13T10:06:20;1.38;;;0.90;;
12124;SDS011;6126;57.908;16.490;2023-07-13T10:08:47;0.60;;;0.60;;
12124;SDS011;6126;57.908;16.490;2023-07-13T10:14:00;1.65;;;0.95;;
12124;SDS011;6126;57.908;16.490;2023-07-13T10:16:34;1.98;;;0.93;;
12124;SDS011;6126;57.908;16.490;2023-07-13T10:19:11;2.13;;;1.00;;
12124;SDS011;6126;57.908;16.490;2023-07-13T10:21:56;1.10;;;0.80;;
12124;SDS011;6126;57.908;16.490;2023-07-13T10:24:36;7.30;;;1.13;;
12124;SDS011;6126;57.908;16.490;2023-07-13T10:27:18;4.55;;;0.98;;
12124;SDS011;6126;57.908;16.490;2023-07-13T10:33:03;2.35;;;0.85;;
12124;SDS011;6126;57.908;16.490;2023-07-13T10:35:37;2.13;;;0.80;;
12124;SDS011;6126;57.908;16.490;2023-07-13T10:38:11;1.20;;;0.82;;
12124;SDS011;6126;57.908;16.490;2023-07-13T10:41:04;1.27;;;0.80;;
12124;SDS011;6126;57.908;16.490;2023-07-13T10:43:38;1.80;;;1.00;;
12124;SDS011;6126;57.908;16.490;2023-07-13T10:46:13;0.68;;;0.68;;
12124;SDS011;6126;57.908;16.490;2023-07-13T10:48:42;1.83;;;0.98;;
12124;SDS011;6126;57.908;16.490;2023-07-13T10:51:14;1.13;;;0.70;;
12124;SDS011;6126;57.908;16.490;2023-07-13T10:53:46;1.33;;;0.80;;
12124;SDS011;6126;57.908;16.490;2023-07-13T10:59:10;2.15;;;1.05;;
12124;SDS011;6126;57.908;16.490;2023-07-13T11:04:20;0.80;;;0.80;;
12124;SDS011;6126;57.908;16.490;2023-07-13T11:06:47;2.53;;;1.27;;
12124;SDS011;6126;57.908;16.490;2023-07-13T11:09:34;1.10;;;0.80;;
12124;SDS011;6126;57.908;16.490;2023-07-13T11:12:09;2.92;;;1.10;;
12124;SDS011;6126;57.908;16.490;2023-07-13T11:15:26;2.30;;;0.80;;
12124;SDS011;6126;57.908;16.490;2023-07-13T11:18:00;2.00;;;0.98;;
12124;SDS011;6126;57.908;16.490;2023-07-13T11:20:33;1.02;;;0.90;;
12124;SDS011;6126;57.908;16.490;2023-07-13T11:25:44;3.22;;;0.80;;
12124;SDS011;6126;57.908;16.490;2023-07-13T11:36:12;1.08;;;0.95;;
12124;SDS011;6126;57.908;16.490;2023-07-13T11:38:45;2.95;;;0.70;;
12124;SDS011;6126;57.908;16.490;2023-07-13T11:41:44;0.90;;;0.70;;
12124;SDS011;6126;57.908;16.490;2023-07-13T11:44:18;2.13;;;0.95;;
12124;SDS011;6126;57.908;16.490;2023-07-13T11:46:47;5.65;;;0.90;;
12124;SDS011;6126;57.908;16.490;2023-07-13T11:49:21;3.47;;;1.00;;
12124;SDS011;6126;57.908;16.490;2023-07-13T11:51:49;1.02;;;0.77;;
12124;SDS011;6126;57.908;16.490;2023-07-13T11:54:28;2.08;;;0.90;;
12124;SDS011;6126;57.908;16.490;2023-07-13T11:59:43;2.25;;;0.85;;
12124;SDS011;6126;57.908;16.490;2023-07-13T12:02:16;1.85;;;0.75;;
12124;SDS011;6126;57.908;16.490;2023-07-13T12:04:53;1.40;;;0.88;;
12124;SDS011;6126;57.908;16.490;2023-07-13T12:07:19;1.25;;;0.70;;
12124;SDS011;6126;57.908;16.490;2023-07-13T12:09:45;2.35;;;0.70;;
12124;SDS011;6126;57.908;16.490;2023-07-13T12:14:39;1.25;;;0.80;;
12124;SDS011;6126;57.908;16.490;2023-07-13T12:17:19;3.58;;;0.77;;
12124;SDS011;6126;57.908;16.490;2023-07-13T12:19:50;1.63;;;0.75;;
12124;SDS011;6126;57.908;16.490;2023-07-13T12:22:18;2.47;;;0.60;;
12124;SDS011;6126;57.908;16.490;2023-07-13T12:24:46;5.03;;;0.98;;
12124;SDS011;6126;57.908;16.490;2023-07-13T12:27:20;2.25;;;0.77;;
12124;SDS011;6126;57.908;16.490;2023-07-13T12:32:30;2.80;;;0.60;;
12124;SDS011;6126;57.908;16.490;2023-07-13T12:35:17;1.05;;;0.75;;
12124;SDS011;6126;57.908;16.490;2023-07-13T12:37:44;1.80;;;0.75;;
12124;SDS011;6126;57.908;16.490;2023-07-13T12:40:16;0.75;;;0.52;;
12124;SDS011;6126;57.908;16.490;2023-07-13T12:42:47;0.65;;;0.40;;
12124;SDS011;6126;57.908;16.490;2023-07-13T12:47:55;1.67;;;0.60;;
12124;SDS011;6126;57.908;16.490;2023-07-13T12:50:29;5.93;;;0.70;;
12124;SDS011;6126;57.908;16.490;2023-07-13T12:53:04;0.80;;;0.60;;
12124;SDS011;6126;57.908;16.490;2023-07-13T12:55:40;0.65;;;0.60;;
12124;SDS011;6126;57.908;16.490;2023-07-13T13:00:57;2.00;;;0.82;;
12124;SDS011;6126;57.908;16.490;2023-07-13T13:06:05;2.70;;;1.00;;
12124;SDS011;6126;57.908;16.490;2023-07-13T13:08:52;1.00;;;0.88;;
12124;SDS011;6126;57.908;16.490;2023-07-13T13:11:23;0.82;;;0.60;;
12124;SDS011;6126;57.908;16.490;2023-07-13T13:13:52;0.90;;;0.80;;
12124;SDS011;6126;57.908;16.490;2023-07-13T13:16:31;0.73;;;0.60;;
12124;SDS011;6126;57.908;16.490;2023-07-13T13:19:18;1.13;;;1.02;;
12124;SDS011;6126;57.908;16.490;2023-07-13T13:21:50;5.38;;;1.17;;
12124;SDS011;6126;57.908;16.490;2023-07-13T13:24:20;1.25;;;0.70;;
12124;SDS011;6126;57.908;16.490;2023-07-13T13:26:50;0.70;;;0.70;;
12124;SDS011;6126;57.908;16.490;2023-07-13T13:29:19;1.35;;;0.90;;
12124;SDS011;6126;57.908;16.490;2023-07-13T13:31:51;1.35;;;1.00;;
12124;SDS011;6126;57.908;16.490;2023-07-13T13:34:19;1.13;;;0.88;;
12124;SDS011;6126;57.908;16.490;2023-07-13T13:36:50;1.60;;;0.60;;
12124;SDS011;6126;57.908;16.490;2023-07-13T13:39:25;1.13;;;0.90;;
12124;SDS011;6126;57.908;16.490;2023-07-13T13:41:59;0.75;;;0.75;;
12124;SDS011;6126;57.908;16.490;2023-07-13T13:44:26;1.35;;;0.90;;
12124;SDS011;6126;57.908;16.490;2023-07-13T13:46:52;0.90;;;0.80;;
12124;SDS011;6126;57.908;16.490;2023-07-13T13:49:21;2.17;;;0.88;;
12124;SDS011;6126;57.908;16.490;2023-07-13T13:51:50;0.80;;;0.80;;
12124;SDS011;6126;57.908;16.490;2023-07-13T13:54:18;0.90;;;0.80;;
12124;SDS011;6126;57.908;16.490;2023-07-13T13:56:47;1.27;;;0.70;;
12124;SDS011;6126;57.908;16.490;2023-07-13T13:59:15;1.02;;;0.82;;
12124;SDS011;6126;57.908;16.490;2023-07-13T14:01:43;1.13;;;0.85;;
12124;SDS011;6126;57.908;16.490;2023-07-13T14:04:14;0.77;;;0.77;;
12124;SDS011;6126;57.908;16.490;2023-07-13T14:06:44;0.82;;;0.70;;
12124;SDS011;6126;57.908;16.490;2023-07-13T14:09:12;1.58;;;0.90;;
12124;SDS011;6126;57.908;16.490;2023-07-13T14:11:41;1.67;;;1.08;;
12124;SDS011;6126;57.908;16.490;2023-07-13T14:14:09;1.75;;;1.20;;
12124;SDS011;6126;57.908;16.490;2023-07-13T14:16:45;2.17;;;0.90;;
12124;SDS011;6126;57.908;16.490;2023-07-13T14:19:18;2.85;;;0.82;;
12124;SDS011;6126;57.908;16.490;2023-07-13T14:21:44;1.27;;;0.95;;
12124;SDS011;6126;57.908;16.490;2023-07-13T14:24:12;1.13;;;1.00;;
12124;SDS011;6126;57.908;16.490;2023-07-13T14:26:39;1.45;;;0.80;;
12124;SDS011;6126;57.908;16.490;2023-07-13T14:29:13;1.05;;;0.90;;
12124;SDS011;6126;57.908;16.490;2023-07-13T14:31:43;0.80;;;0.80;;
12124;SDS011;6126;57.908;16.490;2023-07-13T14:34:10;1.10;;;1.00;;
12124;SDS011;6126;57.908;16.490;2023-07-13T14:36:41;1.08;;;1.00;;
12124;SDS011;6126;57.908;16.490;2023-07-13T14:39:14;1.30;;;0.90;;
12124;SDS011;6126;57.908;16.490;2023-07-13T14:41:44;1.65;;;0.88;;
12124;SDS011;6126;57.908;16.490;2023-07-13T14:44:14;1.17;;;0.90;;
12124;SDS011;6126;57.908;16.490;2023-07-13T14:46:43;1.10;;;1.00;;
12124;SDS011;6126;57.908;16.490;2023-07-13T14:51:48;1.10;;;1.08;;
12124;SDS011;6126;57.908;16.490;2023-07-13T14:54:14;0.93;;;0.90;;
12124;SDS011;6126;57.908;16.490;2023-07-13T14:56:40;0.80;;;0.80;;
12124;SDS011;6126;57.908;16.490;2023-07-13T14:59:06;1.98;;;1.08;;
12124;SDS011;6126;57.908;16.490;2023-07-13T15:01:33;1.20;;;1.10;;
12124;SDS011;6126;57.908;16.490;2023-07-13T15:04:01;1.17;;;1.02;;
12124;SDS011;6126;57.908;16.490;2023-07-13T15:06:29;2.33;;;1.00;;
12124;SDS011;6126;57.908;16.490;2023-07-13T15:08:56;0.80;;;0.77;;
12124;SDS011;6126;57.908;16.490;2023-07-13T15:11:23;1.02;;;0.60;;
12124;SDS011;6126;57.908;16.490;2023-07-13T15:13:49;0.93;;;0.82;;
12124;SDS011;6126;57.908;16.490;2023-07-13T15:16:17;1.23;;;0.70;;
12124;SDS011;6126;57.908;16.490;2023-07-13T15:18:48;1.40;;;0.90;;
12124;SDS011;6126;57.908;16.490;2023-07-13T15:21:21;0.68;;;0.68;;
12124;SDS011;6126;57.908;16.490;2023-07-13T15:23:50;1.30;;;1.02;;
12124;SDS011;6126;57.908;16.490;2023-07-13T15:26:16;1.13;;;0.65;;
12124;SDS011;6126;57.908;16.490;2023-07-13T15:28:44;1.60;;;1.00;;
12124;SDS011;6126;57.908;16.490;2023-07-13T15:31:17;1.40;;;0.77;;
12124;SDS011;6126;57.908;16.490;2023-07-13T15:33:43;1.73;;;0.75;;
12124;SDS011;6126;57.908;16.490;2023-07-13T15:36:09;0.80;;;0.80;;
12124;SDS011;6126;57.908;16.490;2023-07-13T15:38:35;1.13;;;0.82;;
12124;SDS011;6126;57.908;16.490;2023-07-13T15:41:25;0.65;;;0.65;;
12124;SDS011;6126;57.908;16.490;2023-07-13T15:43:54;1.17;;;0.82;;
12124;SDS011;6126;57.908;16.490;2023-07-13T15:46:26;1.27;;;0.82;;
12124;SDS011;6126;57.908;16.490;2023-07-13T15:48:53;0.95;;;0.80;;
12124;SDS011;6126;57.908;16.490;2023-07-13T15:53:56;3.10;;;0.90;;
12124;SDS011;6126;57.908;16.490;2023-07-13T15:56:29;1.40;;;1.00;;
12124;SDS011;6126;57.908;16.490;2023-07-13T15:58:58;1.20;;;1.10;;
12124;SDS011;6126;57.908;16.490;2023-07-13T16:01:24;1.98;;;0.93;;
12124;SDS011;6126;57.908;16.490;2023-07-13T16:03:52;0.88;;;0.80;;
12124;SDS011;6126;57.908;16.490;2023-07-13T16:06:25;1.13;;;1.02;;
12124;SDS011;6126;57.908;16.490;2023-07-13T16:08:57;1.60;;;0.95;;